sensor_id;sensor_type;location;lat;lon;timestamp;P1;durP1;ratioP1;P2;durP2;ratioP2
10452;SDS011;5274;51.992;8.518;2024-01-15T00:00:04;69.70;;;64.53;;
10452;SDS011;5274;51.992;8.518;2024-01-15T00:02:30;70.50;;;65.07;;
10452;SDS011;5274;51.992;8.518;2024-01-15T00:04:56;71.47;;;66.17;;
10452;SDS011;5274;51.992;8.518;2024-01-15T00:07:22;70.00;;;64.33;;
10452;SDS011;5274;51.992;8.518;2024-01-15T00:09:48;67.60;;;62.40;;
10452;SDS011;5274;51.992;8.518;2024-01-15T00:12:14;68.90;;;63.50;;
10452;SDS011;5274;51.992;8.518;2024-01-15T00:14:39;67.83;;;62.43;;
10452;SDS011;5274;51.992;8.518;2024-01-15T00:17:05;67.83;;;62.50;;
10452;SDS011;5274;51.992;8.518;2024-01-15T00:19:31;67.17;;;62.07;;
10452;SDS011;5274;51.992;8.518;2024-01-15T00:21:57;68.73;;;63.13;;
10452;SDS011;5274;51.992;8.518;2024-01-15T00:24:24;70.53;;;64.70;;
10452;SDS011;5274;51.992;8.518;2024-01-15T00:26:50;71.23;;;65.47;;
10452;SDS011;5274;51.992;8.518;2024-01-15T00:29:16;70.87;;;65.13;;
10452;SDS011;5274;51.992;8.518;2024-01-15T00:31:42;68.63;;;63.27;;
10452;SDS011;5274;51.992;8.518;2024-01-15T00:34:08;68.30;;;62.90;;
10452;SDS011;5274;51.992;8.518;2024-01-15T00:36:33;67.60;;;62.50;;
10452;SDS011;5274;51.992;8.518;2024-01-15T00:38:59;69.83;;;64.23;;
10452;SDS011;5274;51.992;8.518;2024-01-15T00:41:25;68.20;;;63.10;;
10452;SDS011;5274;51.992;8.518;2024-01-15T00:43:52;68.07;;;62.87;;
10452;SDS011;5274;51.992;8.518;2024-01-15T00:46:18;68.80;;;63.43;;
10452;SDS011;5274;51.992;8.518;2024-01-15T00:48:44;67.67;;;62.43;;
10452;SDS011;5274;51.992;8.518;2024-01-15T00:51:11;67.80;;;62.63;;
10452;SDS011;5274;51.992;8.518;2024-01-15T00:53:37;66.27;;;60.90;;
10452;SDS011;5274;51.992;8.518;2024-01-15T00:56:03;65.90;;;61.03;;
10452;SDS011;5274;51.992;8.518;2024-01-15T00:58:29;69.90;;;64.67;;
10452;SDS011;5274;51.992;8.518;2024-01-15T01:00:55;66.40;;;61.40;;
10452;SDS011;5274;51.992;8.518;2024-01-15T01:03:21;63.17;;;58.57;;
10452;SDS011;5274;51.992;8.518;2024-01-15T01:05:50;65.10;;;60.20;;
10452;SDS011;5274;51.992;8.518;2024-01-15T01:08:16;66.57;;;61.37;;
10452;SDS011;5274;51.992;8.518;2024-01-15T01:10:42;63.97;;;59.30;;
10452;SDS011;5274;51.992;8.518;2024-01-15T01:13:08;64.60;;;59.70;;
10452;SDS011;5274;51.992;8.518;2024-01-15T01:15:34;62.80;;;58.50;;
10452;SDS011;5274;51.992;8.518;2024-01-15T01:18:00;62.20;;;58.03;;
10452;SDS011;5274;51.992;8.518;2024-01-15T01:20:26;61.20;;;56.87;;
10452;SDS011;5274;51.992;8.518;2024-01-15T01:22:52;61.27;;;56.97;;
10452;SDS011;5274;51.992;8.518;2024-01-15T01:25:18;63.97;;;59.67;;
10452;SDS011;5274;51.992;8.518;2024-01-15T01:27:44;61.93;;;57.73;;
10452;SDS011;5274;51.992;8.518;2024-01-15T01:30:10;61.30;;;56.77;;
10452;SDS011;5274;51.992;8.518;2024-01-15T01:32:36;61.20;;;56.80;;
10452;SDS011;5274;51.992;8.518;2024-01-15T01:35:02;61.10;;;56.77;;
10452;SDS011;5274;51.992;8.518;2024-01-15T01:37:28;60.57;;;55.70;;
10452;SDS011;5274;51.992;8.518;2024-01-15T01:39:54;59.90;;;55.63;;
10452;SDS011;5274;51.992;8.518;2024-01-15T01:42:19;57.47;;;53.63;;
10452;SDS011;5274;51.992;8.518;2024-01-15T01:44:45;58.70;;;54.13;;
10452;SDS011;5274;51.992;8.518;2024-01-15T01:47:11;60.13;;;55.77;;
10452;SDS011;5274;51.992;8.518;2024-01-15T01:49:37;60.00;;;55.47;;
10452;SDS011;5274;51.992;8.518;2024-01-15T01:52:04;60.80;;;56.50;;
10452;SDS011;5274;51.992;8.518;2024-01-15T01:54:34;63.63;;;59.33;;
10452;SDS011;5274;51.992;8.518;2024-01-15T01:57:01;63.30;;;58.93;;
10452;SDS011;5274;51.992;8.518;2024-01-15T01:59:28;63.13;;;58.73;;
10452;SDS011;5274;51.992;8.518;2024-01-15T02:01:54;63.13;;;58.63;;
10452;SDS011;5274;51.992;8.518;2024-01-15T02:04:22;62.43;;;57.93;;
10452;SDS011;5274;51.992;8.518;2024-01-15T02:06:49;61.60;;;57.13;;
10452;SDS011;5274;51.992;8.518;2024-01-15T02:09:15;61.20;;;56.53;;
10452;SDS011;5274;51.992;8.518;2024-01-15T02:11:42;60.87;;;56.50;;
10452;SDS011;5274;51.992;8.518;2024-01-15T02:14:08;60.90;;;56.63;;
10452;SDS011;5274;51.992;8.518;2024-01-15T02:16:34;61.07;;;56.40;;
10452;SDS011;5274;51.992;8.518;2024-01-15T02:19:01;60.70;;;56.17;;
10452;SDS011;5274;51.992;8.518;2024-01-15T02:21:27;62.80;;;58.40;;
10452;SDS011;5274;51.992;8.518;2024-01-15T02:23:53;63.63;;;59.00;;
10452;SDS011;5274;51.992;8.518;2024-01-15T02:26:19;63.73;;;59.13;;
10452;SDS011;5274;51.992;8.518;2024-01-15T02:28:45;59.93;;;55.93;;
10452;SDS011;5274;51.992;8.518;2024-01-15T02:31:11;60.80;;;56.30;;
10452;SDS011;5274;51.992;8.518;2024-01-15T02:33:37;60.77;;;56.43;;
10452;SDS011;5274;51.992;8.518;2024-01-15T02:36:03;59.60;;;55.50;;
10452;SDS011;5274;51.992;8.518;2024-01-15T02:38:29;60.57;;;55.97;;
10452;SDS011;5274;51.992;8.518;2024-01-15T02:40:55;60.17;;;55.80;;
10452;SDS011;5274;51.992;8.518;2024-01-15T02:43:21;60.63;;;56.07;;
10452;SDS011;5274;51.992;8.518;2024-01-15T02:45:47;57.03;;;52.80;;
10452;SDS011;5274;51.992;8.518;2024-01-15T02:48:13;59.73;;;55.30;;
10452;SDS011;5274;51.992;8.518;2024-01-15T02:50:39;61.50;;;57.13;;
10452;SDS011;5274;51.992;8.518;2024-01-15T02:53:05;61.43;;;56.97;;
10452;SDS011;5274;51.992;8.518;2024-01-15T02:55:31;62.27;;;57.60;;
10452;SDS011;5274;51.992;8.518;2024-01-15T02:57:57;60.47;;;56.13;;
10452;SDS011;5274;51.992;8.518;2024-01-15T03:00:23;60.03;;;55.53;;
10452;SDS011;5274;51.992;8.518;2024-01-15T03:02:50;61.23;;;56.80;;
10452;SDS011;5274;51.992;8.518;2024-01-15T03:05:16;59.67;;;55.17;;
10452;SDS011;5274;51.992;8.518;2024-01-15T03:07:42;60.53;;;56.20;;
10452;SDS011;5274;51.992;8.518;2024-01-15T03:10:08;61.83;;;57.20;;
10452;SDS011;5274;51.992;8.518;2024-01-15T03:12:34;60.90;;;56.67;;
10452;SDS011;5274;51.992;8.518;2024-01-15T03:15:00;61.80;;;57.27;;
10452;SDS011;5274;51.992;8.518;2024-01-15T03:17:26;61.10;;;56.77;;
10452;SDS011;5274;51.992;8.518;2024-01-15T03:19:52;63.13;;;58.23;;
10452;SDS011;5274;51.992;8.518;2024-01-15T03:22:18;64.77;;;59.97;;
10452;SDS011;5274;51.992;8.518;2024-01-15T03:24:44;63.97;;;59.57;;
10452;SDS011;5274;51.992;8.518;2024-01-15T03:27:10;62.87;;;58.27;;
10452;SDS011;5274;51.992;8.518;2024-01-15T03:29:36;63.40;;;58.57;;
10452;SDS011;5274;51.992;8.518;2024-01-15T03:32:02;63.57;;;58.97;;
10452;SDS011;5274;51.992;8.518;2024-01-15T03:34:28;61.73;;;57.07;;
10452;SDS011;5274;51.992;8.518;2024-01-15T03:36:54;63.17;;;58.07;;
10452;SDS011;5274;51.992;8.518;2024-01-15T03:39:20;61.87;;;57.30;;
10452;SDS011;5274;51.992;8.518;2024-01-15T03:41:46;60.80;;;56.10;;
10452;SDS011;5274;51.992;8.518;2024-01-15T03:44:12;59.70;;;55.30;;
10452;SDS011;5274;51.992;8.518;2024-01-15T03:46:38;60.87;;;56.47;;
10452;SDS011;5274;51.992;8.518;2024-01-15T03:49:04;62.80;;;57.90;;
10452;SDS011;5274;51.992;8.518;2024-01-15T03:51:29;63.13;;;58.33;;
10452;SDS011;5274;51.992;8.518;2024-01-15T03:53:55;61.27;;;56.73;;
10452;SDS011;5274;51.992;8.518;2024-01-15T03:56:21;63.07;;;58.20;;
10452;SDS011;5274;51.992;8.518;2024-01-15T03:58:47;62.60;;;57.97;;
10452;SDS011;5274;51.992;8.518;2024-01-15T04:01:13;61.77;;;56.73;;
10452;SDS011;5274;51.992;8.518;2024-01-15T04:03:39;61.83;;;56.77;;
10452;SDS011;5274;51.992;8.518;2024-01-15T04:06:05;57.10;;;52.97;;
10452;SDS011;5274;51.992;8.518;2024-01-15T04:08:31;57.33;;;53.03;;
10452;SDS011;5274;51.992;8.518;2024-01-15T04:10:57;58.00;;;53.70;;
10452;SDS011;5274;51.992;8.518;2024-01-15T04:13:23;56.63;;;52.50;;
10452;SDS011;5274;51.992;8.518;2024-01-15T04:15:49;58.33;;;54.40;;
10452;SDS011;5274;51.992;8.518;2024-01-15T04:18:15;61.53;;;56.60;;
10452;SDS011;5274;51.992;8.518;2024-01-15T04:20:41;62.77;;;58.20;;
10452;SDS011;5274;51.992;8.518;2024-01-15T04:23:07;58.27;;;54.17;;
10452;SDS011;5274;51.992;8.518;2024-01-15T04:25:33;58.73;;;54.47;;
10452;SDS011;5274;51.992;8.518;2024-01-15T04:27:59;58.03;;;53.67;;
10452;SDS011;5274;51.992;8.518;2024-01-15T04:30:25;57.27;;;53.10;;
10452;SDS011;5274;51.992;8.518;2024-01-15T04:32:51;56.63;;;52.33;;
10452;SDS011;5274;51.992;8.518;2024-01-15T04:35:17;54.80;;;51.00;;
10452;SDS011;5274;51.992;8.518;2024-01-15T04:37:43;55.33;;;50.97;;
10452;SDS011;5274;51.992;8.518;2024-01-15T04:40:09;55.97;;;51.77;;
10452;SDS011;5274;51.992;8.518;2024-01-15T04:42:35;55.93;;;51.80;;
10452;SDS011;5274;51.992;8.518;2024-01-15T04:45:01;42.70;;;39.67;;
10452;SDS011;5274;51.992;8.518;2024-01-15T04:47:27;46.40;;;42.87;;
10452;SDS011;5274;51.992;8.518;2024-01-15T04:49:53;47.40;;;44.20;;
10452;SDS011;5274;51.992;8.518;2024-01-15T04:52:18;46.20;;;43.20;;
10452;SDS011;5274;51.992;8.518;2024-01-15T04:54:44;47.07;;;43.23;;
10452;SDS011;5274;51.992;8.518;2024-01-15T04:57:10;40.40;;;37.13;;
10452;SDS011;5274;51.992;8.518;2024-01-15T04:59:36;42.93;;;40.13;;
10452;SDS011;5274;51.992;8.518;2024-01-15T05:02:02;44.13;;;40.87;;
10452;SDS011;5274;51.992;8.518;2024-01-15T05:04:28;40.73;;;37.73;;
10452;SDS011;5274;51.992;8.518;2024-01-15T05:06:54;40.33;;;37.30;;
10452;SDS011;5274;51.992;8.518;2024-01-15T05:09:21;35.33;;;32.67;;
10452;SDS011;5274;51.992;8.518;2024-01-15T05:11:46;39.87;;;37.20;;
10452;SDS011;5274;51.992;8.518;2024-01-15T05:14:12;42.97;;;39.83;;
10452;SDS011;5274;51.992;8.518;2024-01-15T05:16:39;39.47;;;36.83;;
10452;SDS011;5274;51.992;8.518;2024-01-15T05:19:06;40.63;;;37.73;;
10452;SDS011;5274;51.992;8.518;2024-01-15T05:21:32;37.07;;;34.47;;
10452;SDS011;5274;51.992;8.518;2024-01-15T05:23:58;35.73;;;32.77;;
10452;SDS011;5274;51.992;8.518;2024-01-15T05:26:24;39.87;;;36.63;;
10452;SDS011;5274;51.992;8.518;2024-01-15T05:28:50;37.23;;;34.73;;
10452;SDS011;5274;51.992;8.518;2024-01-15T05:31:16;39.47;;;36.90;;
10452;SDS011;5274;51.992;8.518;2024-01-15T05:33:42;39.50;;;36.77;;
10452;SDS011;5274;51.992;8.518;2024-01-15T05:36:08;39.93;;;36.80;;
10452;SDS011;5274;51.992;8.518;2024-01-15T05:38:34;37.10;;;34.60;;
10452;SDS011;5274;51.992;8.518;2024-01-15T05:40:59;37.43;;;34.77;;
10452;SDS011;5274;51.992;8.518;2024-01-15T05:43:25;38.23;;;35.73;;
10452;SDS011;5274;51.992;8.518;2024-01-15T05:45:51;39.70;;;36.73;;
10452;SDS011;5274;51.992;8.518;2024-01-15T05:48:17;36.90;;;34.40;;
10452;SDS011;5274;51.992;8.518;2024-01-15T05:50:43;38.33;;;35.47;;
10452;SDS011;5274;51.992;8.518;2024-01-15T05:53:09;40.70;;;37.80;;
10452;SDS011;5274;51.992;8.518;2024-01-15T05:55:36;41.40;;;38.53;;
10452;SDS011;5274;51.992;8.518;2024-01-15T05:58:03;39.23;;;36.60;;
10452;SDS011;5274;51.992;8.518;2024-01-15T06:00:29;43.97;;;40.87;;
10452;SDS011;5274;51.992;8.518;2024-01-15T06:02:55;42.80;;;39.87;;
10452;SDS011;5274;51.992;8.518;2024-01-15T06:05:21;42.53;;;39.17;;
10452;SDS011;5274;51.992;8.518;2024-01-15T06:07:47;41.73;;;39.00;;
10452;SDS011;5274;51.992;8.518;2024-01-15T06:10:12;40.50;;;37.90;;
10452;SDS011;5274;51.992;8.518;2024-01-15T06:12:39;46.53;;;43.77;;
10452;SDS011;5274;51.992;8.518;2024-01-15T06:15:05;39.27;;;36.20;;
10452;SDS011;5274;51.992;8.518;2024-01-15T06:17:31;37.43;;;34.97;;
10452;SDS011;5274;51.992;8.518;2024-01-15T06:19:57;45.53;;;42.60;;
10452;SDS011;5274;51.992;8.518;2024-01-15T06:22:23;38.00;;;35.23;;
10452;SDS011;5274;51.992;8.518;2024-01-15T06:24:49;41.93;;;39.33;;
10452;SDS011;5274;51.992;8.518;2024-01-15T06:27:15;40.70;;;38.07;;
10452;SDS011;5274;51.992;8.518;2024-01-15T06:29:44;40.40;;;37.93;;
10452;SDS011;5274;51.992;8.518;2024-01-15T06:32:11;47.53;;;44.17;;
10452;SDS011;5274;51.992;8.518;2024-01-15T06:34:37;44.87;;;42.00;;
10452;SDS011;5274;51.992;8.518;2024-01-15T06:37:03;41.13;;;38.40;;
10452;SDS011;5274;51.992;8.518;2024-01-15T06:39:29;40.57;;;37.30;;
10452;SDS011;5274;51.992;8.518;2024-01-15T06:41:55;43.17;;;40.47;;
10452;SDS011;5274;51.992;8.518;2024-01-15T06:44:21;42.10;;;39.20;;
10452;SDS011;5274;51.992;8.518;2024-01-15T06:46:47;38.47;;;35.90;;
10452;SDS011;5274;51.992;8.518;2024-01-15T06:49:13;39.67;;;36.97;;
10452;SDS011;5274;51.992;8.518;2024-01-15T06:51:39;39.93;;;37.13;;
10452;SDS011;5274;51.992;8.518;2024-01-15T06:54:05;40.73;;;38.03;;
10452;SDS011;5274;51.992;8.518;2024-01-15T06:56:31;36.97;;;34.37;;
10452;SDS011;5274;51.992;8.518;2024-01-15T06:58:57;40.00;;;36.93;;
10452;SDS011;5274;51.992;8.518;2024-01-15T07:01:23;44.43;;;41.73;;
10452;SDS011;5274;51.992;8.518;2024-01-15T07:03:49;43.87;;;41.00;;
10452;SDS011;5274;51.992;8.518;2024-01-15T07:06:15;36.63;;;34.40;;
10452;SDS011;5274;51.992;8.518;2024-01-15T07:08:41;35.63;;;33.27;;
10452;SDS011;5274;51.992;8.518;2024-01-15T07:11:07;41.17;;;38.47;;
10452;SDS011;5274;51.992;8.518;2024-01-15T07:13:33;42.87;;;39.80;;
10452;SDS011;5274;51.992;8.518;2024-01-15T07:15:59;40.47;;;37.60;;
10452;SDS011;5274;51.992;8.518;2024-01-15T07:18:25;42.83;;;39.80;;
10452;SDS011;5274;51.992;8.518;2024-01-15T07:20:51;46.90;;;43.90;;
10452;SDS011;5274;51.992;8.518;2024-01-15T07:23:17;37.43;;;34.83;;
10452;SDS011;5274;51.992;8.518;2024-01-15T07:25:43;37.30;;;34.63;;
10452;SDS011;5274;51.992;8.518;2024-01-15T07:28:09;45.97;;;43.00;;
10452;SDS011;5274;51.992;8.518;2024-01-15T07:30:35;34.90;;;32.57;;
10452;SDS011;5274;51.992;8.518;2024-01-15T07:33:03;45.50;;;42.83;;
10452;SDS011;5274;51.992;8.518;2024-01-15T07:35:29;38.93;;;36.60;;
10452;SDS011;5274;51.992;8.518;2024-01-15T07:37:55;35.57;;;33.27;;
10452;SDS011;5274;51.992;8.518;2024-01-15T07:40:21;36.23;;;33.73;;
10452;SDS011;5274;51.992;8.518;2024-01-15T07:42:47;38.97;;;36.63;;
10452;SDS011;5274;51.992;8.518;2024-01-15T07:45:13;39.27;;;36.97;;
10452;SDS011;5274;51.992;8.518;2024-01-15T07:47:39;41.47;;;39.00;;
10452;SDS011;5274;51.992;8.518;2024-01-15T07:50:05;36.00;;;33.47;;
10452;SDS011;5274;51.992;8.518;2024-01-15T07:52:31;48.70;;;45.37;;
10452;SDS011;5274;51.992;8.518;2024-01-15T07:54:57;40.53;;;38.33;;
10452;SDS011;5274;51.992;8.518;2024-01-15T07:57:28;36.10;;;33.70;;
10452;SDS011;5274;51.992;8.518;2024-01-15T07:59:54;34.80;;;32.57;;
10452;SDS011;5274;51.992;8.518;2024-01-15T08:02:20;37.97;;;35.43;;
10452;SDS011;5274;51.992;8.518;2024-01-15T08:04:46;37.40;;;35.03;;
10452;SDS011;5274;51.992;8.518;2024-01-15T08:07:12;36.47;;;34.13;;
10452;SDS011;5274;51.992;8.518;2024-01-15T08:09:38;37.77;;;35.33;;
10452;SDS011;5274;51.992;8.518;2024-01-15T08:12:04;36.60;;;33.77;;
10452;SDS011;5274;51.992;8.518;2024-01-15T08:14:31;38.43;;;35.77;;
10452;SDS011;5274;51.992;8.518;2024-01-15T08:16:57;36.60;;;34.23;;
10452;SDS011;5274;51.992;8.518;2024-01-15T08:19:23;36.50;;;34.33;;
10452;SDS011;5274;51.992;8.518;2024-01-15T08:21:49;35.80;;;33.50;;
10452;SDS011;5274;51.992;8.518;2024-01-15T08:24:15;35.57;;;33.47;;
10452;SDS011;5274;51.992;8.518;2024-01-15T08:26:41;35.27;;;33.17;;
10452;SDS011;5274;51.992;8.518;2024-01-15T08:29:07;39.60;;;37.40;;
10452;SDS011;5274;51.992;8.518;2024-01-15T08:31:33;44.37;;;41.77;;
10452;SDS011;5274;51.992;8.518;2024-01-15T08:33:59;39.63;;;37.27;;
10452;SDS011;5274;51.992;8.518;2024-01-15T08:36:26;43.00;;;40.53;;
10452;SDS011;5274;51.992;8.518;2024-01-15T08:38:54;41.23;;;38.77;;
10452;SDS011;5274;51.992;8.518;2024-01-15T08:41:20;41.57;;;39.17;;
10452;SDS011;5274;51.992;8.518;2024-01-15T08:43:46;43.53;;;41.03;;
10452;SDS011;5274;51.992;8.518;2024-01-15T08:46:12;38.83;;;36.63;;
10452;SDS011;5274;51.992;8.518;2024-01-15T08:48:38;47.00;;;44.60;;
10452;SDS011;5274;51.992;8.518;2024-01-15T08:51:04;55.43;;;52.13;;
10452;SDS011;5274;51.992;8.518;2024-01-15T08:53:30;59.23;;;55.63;;
10452;SDS011;5274;51.992;8.518;2024-01-15T08:55:57;46.37;;;43.57;;
10452;SDS011;5274;51.992;8.518;2024-01-15T08:58:23;53.27;;;50.30;;
10452;SDS011;5274;51.992;8.518;2024-01-15T09:00:50;52.27;;;49.37;;
10452;SDS011;5274;51.992;8.518;2024-01-15T09:03:16;42.60;;;40.27;;
10452;SDS011;5274;51.992;8.518;2024-01-15T09:05:42;52.40;;;49.53;;
10452;SDS011;5274;51.992;8.518;2024-01-15T09:08:08;52.80;;;49.70;;
10452;SDS011;5274;51.992;8.518;2024-01-15T09:10:34;52.17;;;49.37;;
10452;SDS011;5274;51.992;8.518;2024-01-15T09:13:00;54.80;;;51.63;;
10452;SDS011;5274;51.992;8.518;2024-01-15T09:15:28;56.33;;;52.97;;
10452;SDS011;5274;51.992;8.518;2024-01-15T09:17:54;55.40;;;52.10;;
10452;SDS011;5274;51.992;8.518;2024-01-15T09:20:22;57.23;;;53.73;;
10452;SDS011;5274;51.992;8.518;2024-01-15T09:22:48;56.70;;;53.40;;
10452;SDS011;5274;51.992;8.518;2024-01-15T09:25:14;54.83;;;51.63;;
10452;SDS011;5274;51.992;8.518;2024-01-15T09:27:40;57.63;;;54.03;;
10452;SDS011;5274;51.992;8.518;2024-01-15T09:30:06;55.60;;;52.20;;
10452;SDS011;5274;51.992;8.518;2024-01-15T09:32:33;58.23;;;54.93;;
10452;SDS011;5274;51.992;8.518;2024-01-15T09:34:59;56.10;;;52.60;;
10452;SDS011;5274;51.992;8.518;2024-01-15T09:37:25;55.40;;;52.20;;
10452;SDS011;5274;51.992;8.518;2024-01-15T09:39:51;55.33;;;51.93;;
10452;SDS011;5274;51.992;8.518;2024-01-15T09:42:18;57.23;;;53.63;;
10452;SDS011;5274;51.992;8.518;2024-01-15T09:44:44;57.03;;;53.73;;
10452;SDS011;5274;51.992;8.518;2024-01-15T09:47:11;55.77;;;52.20;;
10452;SDS011;5274;51.992;8.518;2024-01-15T09:49:38;54.40;;;51.00;;
10452;SDS011;5274;51.992;8.518;2024-01-15T09:52:05;53.17;;;50.20;;
10452;SDS011;5274;51.992;8.518;2024-01-15T09:54:33;53.87;;;50.63;;
10452;SDS011;5274;51.992;8.518;2024-01-15T09:57:00;55.47;;;52.23;;
10452;SDS011;5274;51.992;8.518;2024-01-15T09:59:26;52.53;;;49.23;;
10452;SDS011;5274;51.992;8.518;2024-01-15T10:01:52;54.57;;;51.27;;
10452;SDS011;5274;51.992;8.518;2024-01-15T10:04:19;55.63;;;52.30;;
10452;SDS011;5274;51.992;8.518;2024-01-15T10:06:45;54.27;;;51.20;;
10452;SDS011;5274;51.992;8.518;2024-01-15T10:09:12;55.50;;;52.00;;
10452;SDS011;5274;51.992;8.518;2024-01-15T10:11:42;52.97;;;49.77;;
10452;SDS011;5274;51.992;8.518;2024-01-15T10:14:11;53.77;;;50.47;;
10452;SDS011;5274;51.992;8.518;2024-01-15T10:16:38;52.40;;;49.13;;
10452;SDS011;5274;51.992;8.518;2024-01-15T10:19:04;52.77;;;49.80;;
10452;SDS011;5274;51.992;8.518;2024-01-15T10:21:31;52.20;;;49.00;;
10452;SDS011;5274;51.992;8.518;2024-01-15T10:23:59;51.00;;;47.97;;
10452;SDS011;5274;51.992;8.518;2024-01-15T10:26:25;49.43;;;46.60;;
10452;SDS011;5274;51.992;8.518;2024-01-15T10:28:52;50.57;;;47.67;;
10452;SDS011;5274;51.992;8.518;2024-01-15T10:31:17;51.00;;;48.00;;
10452;SDS011;5274;51.992;8.518;2024-01-15T10:33:50;51.80;;;48.90;;
10452;SDS011;5274;51.992;8.518;2024-01-15T10:36:16;53.93;;;50.67;;
10452;SDS011;5274;51.992;8.518;2024-01-15T10:38:43;52.47;;;49.47;;
10452;SDS011;5274;51.992;8.518;2024-01-15T10:41:09;55.03;;;51.37;;
10452;SDS011;5274;51.992;8.518;2024-01-15T10:43:35;52.63;;;49.37;;
10452;SDS011;5274;51.992;8.518;2024-01-15T10:46:01;53.07;;;49.93;;
10452;SDS011;5274;51.992;8.518;2024-01-15T10:48:27;54.07;;;50.80;;
10452;SDS011;5274;51.992;8.518;2024-01-15T10:50:55;51.47;;;48.17;;
10452;SDS011;5274;51.992;8.518;2024-01-15T10:53:22;48.20;;;45.40;;
10452;SDS011;5274;51.992;8.518;2024-01-15T10:55:48;51.47;;;48.13;;
10452;SDS011;5274;51.992;8.518;2024-01-15T10:58:16;46.97;;;44.13;;
10452;SDS011;5274;51.992;8.518;2024-01-15T11:00:42;49.00;;;46.17;;
10452;SDS011;5274;51.992;8.518;2024-01-15T11:03:08;50.13;;;46.93;;
10452;SDS011;5274;51.992;8.518;2024-01-15T11:05:38;44.60;;;42.00;;
10452;SDS011;5274;51.992;8.518;2024-01-15T11:08:07;51.07;;;48.07;;
10452;SDS011;5274;51.992;8.518;2024-01-15T11:10:46;52.17;;;48.87;;
10452;SDS011;5274;51.992;8.518;2024-01-15T11:13:20;51.57;;;48.37;;
10452;SDS011;5274;51.992;8.518;2024-01-15T11:18:26;52.97;;;49.93;;
10452;SDS011;5274;51.992;8.518;2024-01-15T11:23:43;52.37;;;49.30;;
10452;SDS011;5274;51.992;8.518;2024-01-15T11:26:32;52.60;;;49.20;;
10452;SDS011;5274;51.992;8.518;2024-01-15T11:28:59;51.93;;;48.93;;
10452;SDS011;5274;51.992;8.518;2024-01-15T11:34:04;51.80;;;48.60;;
10452;SDS011;5274;51.992;8.518;2024-01-15T11:42:11;49.13;;;46.40;;
10452;SDS011;5274;51.992;8.518;2024-01-15T11:44:37;50.07;;;47.07;;
10452;SDS011;5274;51.992;8.518;2024-01-15T11:47:04;51.00;;;48.10;;
10452;SDS011;5274;51.992;8.518;2024-01-15T11:52:16;50.30;;;47.17;;
10452;SDS011;5274;51.992;8.518;2024-01-15T11:54:45;51.33;;;48.03;;
10452;SDS011;5274;51.992;8.518;2024-01-15T11:57:16;53.70;;;50.50;;
10452;SDS011;5274;51.992;8.518;2024-01-15T11:59:44;55.70;;;52.17;;
10452;SDS011;5274;51.992;8.518;2024-01-15T12:02:10;53.73;;;50.63;;
10452;SDS011;5274;51.992;8.518;2024-01-15T12:04:38;54.80;;;51.60;;
10452;SDS011;5274;51.992;8.518;2024-01-15T12:07:04;52.80;;;49.70;;
10452;SDS011;5274;51.992;8.518;2024-01-15T12:09:30;53.20;;;49.83;;
10452;SDS011;5274;51.992;8.518;2024-01-15T12:12:02;51.37;;;48.47;;
10452;SDS011;5274;51.992;8.518;2024-01-15T12:14:30;52.10;;;49.10;;
10452;SDS011;5274;51.992;8.518;2024-01-15T12:16:56;52.23;;;49.33;;
10452;SDS011;5274;51.992;8.518;2024-01-15T12:19:22;48.83;;;46.03;;
10452;SDS011;5274;51.992;8.518;2024-01-15T12:21:50;53.00;;;49.80;;
10452;SDS011;5274;51.992;8.518;2024-01-15T12:24:16;51.80;;;48.83;;
10452;SDS011;5274;51.992;8.518;2024-01-15T12:26:42;53.37;;;50.07;;
10452;SDS011;5274;51.992;8.518;2024-01-15T12:29:08;53.83;;;50.40;;
10452;SDS011;5274;51.992;8.518;2024-01-15T12:31:35;53.07;;;50.07;;
10452;SDS011;5274;51.992;8.518;2024-01-15T12:34:02;53.37;;;49.80;;
10452;SDS011;5274;51.992;8.518;2024-01-15T12:36:30;52.60;;;49.40;;
10452;SDS011;5274;51.992;8.518;2024-01-15T12:38:59;49.67;;;46.67;;
10452;SDS011;5274;51.992;8.518;2024-01-15T12:41:25;50.17;;;47.27;;
10452;SDS011;5274;51.992;8.518;2024-01-15T12:43:51;51.50;;;48.37;;
10452;SDS011;5274;51.992;8.518;2024-01-15T12:46:17;50.00;;;47.17;;
10452;SDS011;5274;51.992;8.518;2024-01-15T12:48:44;51.30;;;48.10;;
10452;SDS011;5274;51.992;8.518;2024-01-15T12:51:10;50.63;;;47.83;;
10452;SDS011;5274;51.992;8.518;2024-01-15T12:53:36;52.13;;;49.07;;
10452;SDS011;5274;51.992;8.518;2024-01-15T12:56:02;52.47;;;49.30;;
10452;SDS011;5274;51.992;8.518;2024-01-15T12:58:28;51.70;;;48.60;;
10452;SDS011;5274;51.992;8.518;2024-01-15T13:00:54;50.30;;;47.43;;
10452;SDS011;5274;51.992;8.518;2024-01-15T13:03:20;53.10;;;50.00;;
10452;SDS011;5274;51.992;8.518;2024-01-15T13:05:47;52.93;;;49.80;;
10452;SDS011;5274;51.992;8.518;2024-01-15T13:08:14;49.40;;;46.77;;
10452;SDS011;5274;51.992;8.518;2024-01-15T13:10:40;47.00;;;44.40;;
10452;SDS011;5274;51.992;8.518;2024-01-15T13:13:07;44.83;;;42.53;;
10452;SDS011;5274;51.992;8.518;2024-01-15T13:15:33;47.60;;;44.73;;
10452;SDS011;5274;51.992;8.518;2024-01-15T13:17:59;48.47;;;45.67;;
10452;SDS011;5274;51.992;8.518;2024-01-15T13:20:25;50.37;;;47.57;;
10452;SDS011;5274;51.992;8.518;2024-01-15T13:22:51;49.87;;;46.97;;
10452;SDS011;5274;51.992;8.518;2024-01-15T13:25:17;55.03;;;51.80;;
10452;SDS011;5274;51.992;8.518;2024-01-15T13:27:42;50.87;;;47.80;;
10452;SDS011;5274;51.992;8.518;2024-01-15T13:30:09;52.00;;;49.00;;
10452;SDS011;5274;51.992;8.518;2024-01-15T13:32:36;51.57;;;48.63;;
10452;SDS011;5274;51.992;8.518;2024-01-15T13:35:02;52.53;;;49.53;;
10452;SDS011;5274;51.992;8.518;2024-01-15T13:37:30;52.60;;;49.60;;
10452;SDS011;5274;51.992;8.518;2024-01-15T13:39:56;51.23;;;48.33;;
10452;SDS011;5274;51.992;8.518;2024-01-15T13:42:23;51.47;;;48.50;;
10452;SDS011;5274;51.992;8.518;2024-01-15T13:44:49;53.50;;;50.60;;
10452;SDS011;5274;51.992;8.518;2024-01-15T13:47:15;54.37;;;51.27;;
10452;SDS011;5274;51.992;8.518;2024-01-15T13:49:41;52.63;;;49.70;;
10452;SDS011;5274;51.992;8.518;2024-01-15T13:52:07;53.30;;;50.37;;
10452;SDS011;5274;51.992;8.518;2024-01-15T13:54:32;50.97;;;48.17;;
10452;SDS011;5274;51.992;8.518;2024-01-15T13:56:58;52.33;;;49.33;;
10452;SDS011;5274;51.992;8.518;2024-01-15T13:59:24;52.33;;;49.33;;
10452;SDS011;5274;51.992;8.518;2024-01-15T14:01:50;53.97;;;50.43;;
10452;SDS011;5274;51.992;8.518;2024-01-15T14:04:16;51.40;;;48.70;;
10452;SDS011;5274;51.992;8.518;2024-01-15T14:06:43;50.30;;;47.50;;
10452;SDS011;5274;51.992;8.518;2024-01-15T14:09:09;50.87;;;48.00;;
10452;SDS011;5274;51.992;8.518;2024-01-15T14:11:36;50.67;;;48.17;;
10452;SDS011;5274;51.992;8.518;2024-01-15T14:14:02;52.00;;;49.20;;
10452;SDS011;5274;51.992;8.518;2024-01-15T14:16:28;52.83;;;49.93;;
10452;SDS011;5274;51.992;8.518;2024-01-15T14:18:54;52.27;;;49.33;;
10452;SDS011;5274;51.992;8.518;2024-01-15T14:21:20;53.87;;;50.67;;
10452;SDS011;5274;51.992;8.518;2024-01-15T14:23:46;52.40;;;49.50;;
10452;SDS011;5274;51.992;8.518;2024-01-15T14:26:12;50.70;;;47.83;;
10452;SDS011;5274;51.992;8.518;2024-01-15T14:28:38;47.20;;;44.60;;
10452;SDS011;5274;51.992;8.518;2024-01-15T14:31:04;51.33;;;48.50;;
10452;SDS011;5274;51.992;8.518;2024-01-15T14:33:30;49.27;;;46.57;;
10452;SDS011;5274;51.992;8.518;2024-01-15T14:35:56;52.30;;;49.50;;
10452;SDS011;5274;51.992;8.518;2024-01-15T14:38:22;52.93;;;49.97;;
10452;SDS011;5274;51.992;8.518;2024-01-15T14:40:48;52.80;;;49.80;;
10452;SDS011;5274;51.992;8.518;2024-01-15T14:43:14;51.43;;;48.57;;